createdAt,value
2022-12-12T00:02:10.983Z,5.60
2022-12-12T00:04:37.657Z,5.56
2022-12-12T00:07:04.340Z,5.51
2022-12-12T00:09:30.867Z,5.50
2022-12-12T00:11:57.413Z,5.49
2022-12-12T00:14:23.930Z,5.49
2022-12-12T00:16:50.420Z,5.50
2022-12-12T00:19:16.986Z,5.48
2022-12-12T00:21:43.545Z,5.47
2022-12-12T00:24:10.816Z,5.43
2022-12-12T00:26:37.424Z,5.42
2022-12-12T00:29:04.492Z,5.39
2022-12-12T00:31:31.443Z,5.38
2022-12-12T00:33:58.385Z,5.39
2022-12-12T00:36:28.623Z,5.37
2022-12-12T00:38:55.715Z,5.34
2022-12-12T00:41:22.797Z,5.34
2022-12-12T00:43:49.894Z,5.35
2022-12-12T00:46:18.932Z,5.37
2022-12-12T00:48:45.550Z,5.36
2022-12-12T00:51:19.795Z,5.32
2022-12-12T00:53:47.221Z,5.28
2022-12-12T00:56:16.148Z,5.28
2022-12-12T00:58:43.037Z,5.24
2022-12-12T01:01:15.229Z,5.21
2022-12-12T01:03:42.489Z,5.20
2022-12-12T01:06:10.148Z,5.20
2022-12-12T01:08:38.021Z,5.19
2022-12-12T01:11:05.428Z,5.19
2022-12-12T01:13:32.137Z,5.17
2022-12-12T01:15:58.928Z,5.15
2022-12-12T01:18:25.701Z,5.14
2022-12-12T01:20:52.571Z,5.11
2022-12-12T01:23:19.315Z,5.09
2022-12-12T01:25:45.937Z,5.06
2022-12-12T01:28:12.837Z,5.03
2022-12-12T01:30:39.461Z,5.01
2022-12-12T01:33:06.113Z,4.97
2022-12-12T01:35:34.548Z,4.93
2022-12-12T01:38:01.123Z,4.89
2022-12-12T01:40:30.613Z,4.85
2022-12-12T01:42:57.259Z,4.82
2022-12-12T01:45:57.884Z,4.80
2022-12-12T01:48:30.275Z,4.81
2022-12-12T01:50:59.721Z,4.79
2022-12-12T01:53:29.568Z,4.78
2022-12-12T01:55:57.396Z,4.76
2022-12-12T01:58:24.861Z,4.75
2022-12-12T02:00:51.896Z,4.74
2022-12-12T02:03:18.579Z,4.73
2022-12-12T02:05:54.789Z,4.67
2022-12-12T02:08:23.150Z,4.61
2022-12-12T02:10:50.000Z,4.54
2022-12-12T02:13:20.419Z,4.50
2022-12-12T02:16:23.745Z,4.47
2022-12-12T02:19:11.835Z,4.46
2022-12-12T02:21:42.238Z,4.44
2022-12-12T02:24:40.805Z,4.43
2022-12-12T02:27:44.852Z,4.40
2022-12-12T02:30:18.299Z,4.35
2022-12-12T02:32:50.171Z,4.29
2022-12-12T02:35:35.052Z,4.21
2022-12-12T02:38:34.455Z,4.14
2022-12-12T02:41:45.857Z,4.12
2022-12-12T02:44:24.616Z,4.08
2022-12-12T02:47:04.033Z,4.02
2022-12-12T02:49:38.875Z,3.93
2022-12-12T02:52:07.085Z,3.85
2022-12-12T02:54:34.753Z,3.77
2022-12-12T02:57:02.383Z,3.68
2022-12-12T02:59:40.279Z,3.63
2022-12-12T03:02:25.409Z,3.59
2022-12-12T03:05:28.989Z,3.58
2022-12-12T03:08:36.553Z,3.59
2022-12-12T03:11:12.826Z,3.63
2022-12-12T03:13:46.155Z,3.66
2022-12-12T03:16:38.747Z,3.66
2022-12-12T03:19:27.115Z,3.67
2022-12-12T03:22:07.120Z,3.65
2022-12-12T03:25:03.288Z,3.66
2022-12-12T03:27:47.238Z,3.65
2022-12-12T03:30:16.423Z,3.66
2022-12-12T03:32:50.823Z,3.65
2022-12-12T03:35:26.298Z,3.62
2022-12-12T03:38:00.716Z,3.61
2022-12-12T03:40:33.318Z,3.61
2022-12-12T03:43:07.591Z,3.60
2022-12-12T03:45:53.883Z,3.59
2022-12-12T03:48:29.311Z,3.57
2022-12-12T03:50:59.376Z,3.55
2022-12-12T03:53:38.460Z,3.53
2022-12-12T03:56:31.695Z,3.48
2022-12-12T03:59:14.800Z,3.45
2022-12-12T04:01:50.018Z,3.44
2022-12-12T04:04:41.697Z,3.42
2022-12-12T04:07:21.807Z,3.41
2022-12-12T04:10:07.656Z,3.40
2022-12-12T04:12:58.889Z,3.38
2022-12-12T04:15:41.283Z,3.38
2022-12-12T04:18:25.455Z,3.36
2022-12-12T04:21:32.802Z,3.33
2022-12-12T04:24:23.627Z,3.30
2022-12-12T04:27:10.251Z,3.27
2022-12-12T04:29:50.732Z,3.27
2022-12-12T04:32:17.155Z,3.26
2022-12-12T04:35:02.250Z,3.22
2022-12-12T04:37:39.089Z,3.19
2022-12-12T04:40:10.399Z,3.18
2022-12-12T04:42:43.391Z,3.16
2022-12-12T04:45:15.460Z,3.13
2022-12-12T04:47:46.660Z,3.11
2022-12-12T04:50:14.292Z,3.10
2022-12-12T04:52:43.309Z,3.06
2022-12-12T04:55:20.004Z,3.01
2022-12-12T04:57:50.192Z,2.98
2022-12-12T05:00:17.470Z,2.97
2022-12-12T05:02:54.595Z,2.95
2022-12-12T05:05:39.453Z,2.93
2022-12-12T05:08:39.289Z,2.91
2022-12-12T05:11:06.855Z,2.90
2022-12-12T05:13:36.952Z,2.90
2022-12-12T05:16:35.220Z,2.86
2022-12-12T05:19:02.759Z,2.85
2022-12-12T05:21:29.285Z,2.85
2022-12-12T05:23:55.906Z,2.84
2022-12-12T05:26:31.557Z,2.84
2022-12-12T05:29:03.669Z,2.84
2022-12-12T05:31:33.357Z,2.82
2022-12-12T05:33:59.932Z,2.84
2022-12-12T05:36:26.611Z,2.82
2022-12-12T05:38:53.228Z,2.80
2022-12-12T05:41:19.878Z,2.77
2022-12-12T05:43:46.500Z,2.74
2022-12-12T05:46:13.805Z,2.69
2022-12-12T05:48:40.659Z,2.64
2022-12-12T05:51:07.271Z,2.53
2022-12-12T05:53:41.981Z,2.47
2022-12-12T05:56:11.385Z,2.44
2022-12-12T05:58:41.728Z,2.45
2022-12-12T06:01:09.109Z,2.45
2022-12-12T06:03:35.769Z,2.45
2022-12-12T06:06:06.573Z,2.44
2022-12-12T06:08:33.240Z,2.43
2022-12-12T06:10:59.865Z,2.43
2022-12-12T06:13:26.426Z,2.40
2022-12-12T06:15:53.018Z,2.37
2022-12-12T06:18:19.683Z,2.36
2022-12-12T06:20:46.274Z,2.33
2022-12-12T06:23:12.961Z,2.32
2022-12-12T06:25:39.657Z,2.31
2022-12-12T06:28:06.225Z,2.29
2022-12-12T06:30:33.484Z,2.29
2022-12-12T06:33:00.036Z,2.28
2022-12-12T06:35:26.605Z,2.28
2022-12-12T06:37:53.161Z,2.25
2022-12-12T06:40:19.748Z,2.25
2022-12-12T06:42:48.442Z,2.23
2022-12-12T06:45:16.134Z,2.22
2022-12-12T06:47:42.880Z,2.22
2022-12-12T06:50:09.661Z,2.20
2022-12-12T06:52:36.189Z,2.22
2022-12-12T06:55:03.005Z,2.19
2022-12-12T06:57:29.600Z,2.17
2022-12-12T06:59:56.284Z,2.14
2022-12-12T07:02:29.295Z,2.10
2022-12-12T07:04:56.867Z,2.08
2022-12-12T07:07:23.519Z,2.05
2022-12-12T07:09:50.152Z,2.01
2022-12-12T07:12:16.684Z,1.99
2022-12-12T07:14:43.301Z,1.97
2022-12-12T07:17:09.825Z,1.95
2022-12-12T07:19:36.379Z,1.89
2022-12-12T07:22:09.310Z,1.85
2022-12-12T07:24:36.860Z,1.80
2022-12-12T07:27:04.172Z,1.75
2022-12-12T07:29:30.733Z,1.69
2022-12-12T07:31:57.539Z,1.66
2022-12-12T07:34:24.182Z,1.62
2022-12-12T07:36:50.882Z,1.59
2022-12-12T07:39:21.000Z,1.56
2022-12-12T07:41:48.245Z,1.53
2022-12-12T07:44:19.549Z,1.51
2022-12-12T07:46:52.202Z,1.46
2022-12-12T07:49:18.794Z,1.42
2022-12-12T07:51:48.885Z,1.37
2022-12-12T07:54:15.841Z,1.32
2022-12-12T07:56:42.449Z,1.27
2022-12-12T07:59:09.105Z,1.23
2022-12-12T08:01:35.780Z,1.19
2022-12-12T08:04:02.390Z,1.14
2022-12-12T08:06:28.929Z,1.12
2022-12-12T08:08:55.479Z,1.15
2022-12-12T08:11:23.888Z,1.22
2022-12-12T08:13:51.187Z,1.29
2022-12-12T08:16:21.246Z,1.34
2022-12-12T08:18:48.942Z,1.44
2022-12-12T08:21:21.459Z,1.54
2022-12-12T08:23:52.259Z,1.68
2022-12-12T08:26:19.061Z,1.81
2022-12-12T08:28:49.093Z,1.97
2022-12-12T08:31:17.529Z,2.13
2022-12-12T08:33:44.675Z,2.27
2022-12-12T08:36:16.354Z,2.41
2022-12-12T08:38:43.646Z,2.53
2022-12-12T08:41:11.527Z,2.68
2022-12-12T08:43:39.488Z,2.80
2022-12-12T08:46:11.004Z,2.90
2022-12-12T08:48:40.352Z,2.97
2022-12-12T08:51:07.344Z,3.01
2022-12-12T08:53:34.176Z,3.08
2022-12-12T08:56:00.831Z,3.12
2022-12-12T08:58:27.435Z,3.17
2022-12-12T09:00:54.101Z,3.26
2022-12-12T09:03:24.785Z,3.36
2022-12-12T09:05:55.448Z,3.48
2022-12-12T09:08:22.123Z,3.56
2022-12-12T09:10:50.528Z,3.64
2022-12-12T09:13:17.346Z,3.66
2022-12-12T09:15:43.919Z,3.68
2022-12-12T09:18:10.475Z,3.69
2022-12-12T09:20:37.026Z,3.72
2022-12-12T09:23:03.645Z,3.76
2022-12-12T09:25:32.057Z,3.77
2022-12-12T09:27:58.877Z,3.79
2022-12-12T09:30:25.448Z,3.78
2022-12-12T09:32:52.028Z,3.77
2022-12-12T09:35:18.524Z,3.74
2022-12-12T09:37:45.073Z,3.68
2022-12-12T09:40:19.255Z,3.64
2022-12-12T09:42:51.480Z,3.59
2022-12-12T09:45:20.122Z,3.55
2022-12-12T09:47:50.694Z,3.55
2022-12-12T09:50:41.698Z,3.55
2022-12-12T09:53:15.802Z,3.57
2022-12-12T09:55:53.658Z,3.55
2022-12-12T09:58:23.667Z,3.53
2022-12-12T10:01:05.079Z,3.50
2022-12-12T10:03:49.541Z,3.53
2022-12-12T10:09:25.128Z,3.53
2022-12-12T10:11:54.960Z,3.58
2022-12-12T10:14:33.005Z,3.62
2022-12-12T10:17:01.949Z,3.70
2022-12-12T10:19:35.278Z,3.73
2022-12-12T10:22:08.215Z,3.77
2022-12-12T10:24:53.283Z,3.87
2022-12-12T10:27:19.939Z,3.96
2022-12-12T10:29:48.638Z,4.09
2022-12-12T10:32:29.526Z,4.21
2022-12-12T10:35:27.001Z,4.28
2022-12-12T10:38:11.888Z,4.36
2022-12-12T10:40:57.645Z,4.41
2022-12-12T10:43:34.444Z,4.53
2022-12-12T10:46:31.046Z,4.65
2022-12-12T10:48:57.903Z,4.73
2022-12-12T10:51:27.890Z,4.80
2022-12-12T10:53:55.517Z,4.90
2022-12-12T10:56:25.688Z,4.99
2022-12-12T10:58:57.428Z,5.10
2022-12-12T11:02:09.216Z,5.17
2022-12-12T11:04:27.704Z,5.26
2022-12-12T11:06:56.262Z,5.31
2022-12-12T11:09:26.850Z,5.40
2022-12-12T11:12:02.055Z,5.47
2022-12-12T11:15:02.140Z,5.56
2022-12-12T11:17:36.067Z,5.67
2022-12-12T11:20:08.207Z,5.78
2022-12-12T11:22:38.761Z,5.86
2022-12-12T11:25:07.332Z,5.97
2022-12-12T11:27:40.580Z,6.08
2022-12-12T11:30:22.555Z,6.19
2022-12-12T11:32:52.085Z,6.25
2022-12-12T11:35:45.636Z,6.29
2022-12-12T11:38:18.715Z,6.35
2022-12-12T11:40:46.914Z,6.35
2022-12-12T11:43:27.478Z,6.41
2022-12-12T11:46:03.122Z,6.43
2022-12-12T11:48:51.579Z,6.39
2022-12-12T11:51:34.839Z,6.35
2022-12-12T11:54:04.716Z,6.34
2022-12-12T11:56:50.104Z,6.32
2022-12-12T11:59:28.584Z,6.32
2022-12-12T12:02:09.319Z,6.32
2022-12-12T12:04:53.228Z,6.29
2022-12-12T12:07:32.618Z,6.31
2022-12-12T12:10:43.605Z,6.29
2022-12-12T12:13:32.372Z,6.30
2022-12-12T12:16:15.819Z,6.28
2022-12-12T12:18:54.444Z,6.28
2022-12-12T12:21:28.746Z,6.28
2022-12-12T12:24:19.696Z,6.28
2022-12-12T12:27:00.933Z,6.32
2022-12-12T12:30:01.143Z,6.34
2022-12-12T12:32:36.719Z,6.41
2022-12-12T12:35:53.026Z,6.47
2022-12-12T12:38:46.584Z,6.59
2022-12-12T12:41:29.369Z,6.70
2022-12-12T12:44:04.415Z,6.79
2022-12-12T12:47:03.167Z,6.81
2022-12-12T12:49:51.716Z,6.84
2022-12-12T12:52:57.057Z,6.85
2022-12-12T12:55:28.688Z,6.95
2022-12-12T12:57:55.315Z,6.99
2022-12-12T13:00:26.713Z,6.97
2022-12-12T13:02:56.396Z,6.92
2022-12-12T13:05:45.341Z,6.87
2022-12-12T13:08:26.917Z,6.86
2022-12-12T13:10:59.680Z,6.89
2022-12-12T13:13:31.405Z,6.94
2022-12-12T13:16:18.048Z,6.93
2022-12-12T13:18:47.992Z,7.01
2022-12-12T13:21:25.050Z,7.05
2022-12-12T13:24:16.996Z,7.04
2022-12-12T13:26:55.776Z,7.03
2022-12-12T13:29:40.111Z,6.98
2022-12-12T13:32:18.898Z,6.91
2022-12-12T13:34:50.816Z,6.85
2022-12-12T13:37:20.919Z,6.78
2022-12-12T13:39:58.508Z,6.76
2022-12-12T13:42:25.172Z,6.73
2022-12-12T13:44:51.908Z,6.69
2022-12-12T13:47:24.628Z,6.69
2022-12-12T13:50:01.068Z,6.70
2022-12-12T13:52:33.085Z,6.74
2022-12-12T13:55:11.632Z,6.78
2022-12-12T13:58:17.155Z,6.76
2022-12-12T14:00:43.936Z,6.80
2022-12-12T14:03:10.475Z,6.81
2022-12-12T14:05:41.128Z,6.78
2022-12-12T14:08:10.690Z,6.77
2022-12-12T14:10:43.563Z,6.74
2022-12-12T14:13:17.386Z,6.69
2022-12-12T14:15:45.296Z,6.68
2022-12-12T14:18:29.965Z,6.63
2022-12-12T14:21:02.332Z,6.60
2022-12-12T14:23:30.477Z,6.55
2022-12-12T14:25:59.792Z,6.53
2022-12-12T14:28:31.915Z,6.50
2022-12-12T14:31:16.500Z,6.48
2022-12-12T14:33:46.077Z,6.45
2022-12-12T14:36:49.685Z,6.40
2022-12-12T14:39:51.559Z,6.34
2022-12-12T14:43:20.522Z,6.31
2022-12-12T14:45:37.253Z,6.25
2022-12-12T14:48:20.564Z,6.20
2022-12-12T14:50:49.767Z,6.16
2022-12-12T14:53:23.675Z,6.11
2022-12-12T14:56:00.437Z,6.07
2022-12-12T14:58:30.286Z,6.06
2022-12-12T15:00:59.822Z,6.03
2022-12-12T15:03:33.718Z,6.01
2022-12-12T15:06:18.756Z,5.96
2022-12-12T15:08:45.433Z,5.94
2022-12-12T15:11:16.841Z,5.89
2022-12-12T15:13:55.140Z,5.81
2022-12-12T15:16:29.740Z,5.74
2022-12-12T15:18:58.714Z,5.68
2022-12-12T15:21:25.695Z,5.61
2022-12-12T15:23:52.351Z,5.55
2022-12-12T15:26:26.295Z,5.50
2022-12-12T15:28:53.431Z,5.43
2022-12-12T15:31:20.839Z,5.38
2022-12-12T15:33:49.332Z,5.34
2022-12-12T15:36:28.383Z,5.27
2022-12-12T15:39:24.483Z,5.19
2022-12-12T15:41:51.149Z,5.13
2022-12-12T15:44:19.945Z,5.05
2022-12-12T15:46:48.282Z,4.96
2022-12-12T15:49:47.129Z,4.81
2022-12-12T15:52:21.199Z,4.74
2022-12-12T15:54:54.749Z,4.67
2022-12-12T15:57:25.764Z,4.61
2022-12-12T15:59:58.282Z,4.56
2022-12-12T16:02:33.037Z,4.52
2022-12-12T16:05:18.116Z,4.49
2022-12-12T16:07:44.953Z,4.46
2022-12-12T16:10:11.681Z,4.43
2022-12-12T16:12:58.591Z,4.38
2022-12-12T16:15:34.066Z,4.35
2022-12-12T16:18:05.452Z,4.30
2022-12-12T16:20:33.174Z,4.29
2022-12-12T16:23:33.567Z,4.23
2022-12-12T16:26:00.185Z,4.17
2022-12-12T16:28:29.444Z,4.08
2022-12-12T16:31:04.408Z,4.02
2022-12-12T16:33:35.016Z,3.98
2022-12-12T16:36:07.617Z,3.94
2022-12-12T16:38:34.868Z,3.93
2022-12-12T16:41:06.756Z,3.90
2022-12-12T16:43:37.052Z,3.89
2022-12-12T16:46:03.834Z,3.89
2022-12-12T16:48:36.007Z,3.88
2022-12-12T16:51:06.183Z,3.88
2022-12-12T16:53:34.977Z,3.87
2022-12-12T16:56:02.716Z,3.83
2022-12-12T16:58:32.319Z,3.80
2022-12-12T17:01:00.340Z,3.74
2022-12-12T17:03:42.657Z,3.69
2022-12-12T17:06:09.292Z,3.63
2022-12-12T17:08:35.951Z,3.59
2022-12-12T17:11:10.040Z,3.55
2022-12-12T17:13:41.216Z,3.51
2022-12-12T17:16:07.861Z,3.49
2022-12-12T17:18:34.501Z,3.46
2022-12-12T17:21:01.035Z,3.44
2022-12-12T17:23:29.130Z,3.41
2022-12-12T17:26:01.062Z,3.40
2022-12-12T17:28:31.946Z,3.39
2022-12-12T17:30:58.689Z,3.40
2022-12-12T17:33:25.633Z,3.39
2022-12-12T17:35:59.571Z,3.36
2022-12-12T17:38:26.251Z,3.35
2022-12-12T17:40:54.012Z,3.31
2022-12-12T17:43:20.652Z,3.27
2022-12-12T17:45:57.328Z,3.25
2022-12-12T17:48:23.879Z,3.24
2022-12-12T17:51:01.645Z,3.21
2022-12-12T17:53:36.656Z,3.18
2022-12-12T17:56:08.182Z,3.14
2022-12-12T17:58:41.206Z,3.11
2022-12-12T18:01:20.685Z,3.07
2022-12-12T18:03:48.143Z,3.07
2022-12-12T18:06:15.811Z,3.06
2022-12-12T18:08:42.758Z,3.06
2022-12-12T18:11:11.628Z,3.06
2022-12-12T18:13:39.812Z,3.04
2022-12-12T18:16:10.620Z,3.01
2022-12-12T18:18:37.303Z,2.99
2022-12-12T18:21:05.859Z,2.97
2022-12-12T18:23:33.145Z,2.96
2022-12-12T18:26:08.910Z,2.95
2022-12-12T18:28:35.988Z,2.95
2022-12-12T18:31:03.632Z,2.93
2022-12-12T18:33:30.488Z,2.93
2022-12-12T18:36:01.771Z,2.91
2022-12-12T18:38:28.940Z,2.90
2022-12-12T18:40:55.561Z,2.88
2022-12-12T18:43:24.199Z,2.86
2022-12-12T18:45:50.868Z,2.84
2022-12-12T18:48:17.417Z,2.85
2022-12-12T18:50:43.940Z,2.83
2022-12-12T18:53:10.438Z,2.80
2022-12-12T18:55:43.614Z,2.78
2022-12-12T18:58:11.026Z,2.75
2022-12-12T19:00:40.309Z,2.70
2022-12-12T19:03:08.080Z,2.65
2022-12-12T19:05:40.396Z,2.58
2022-12-12T19:08:07.473Z,2.51
2022-12-12T19:10:35.978Z,2.45
2022-12-12T19:13:03.015Z,2.39
2022-12-12T19:15:29.748Z,2.33
2022-12-12T19:17:57.388Z,2.28
2022-12-12T19:20:24.949Z,2.21
2022-12-12T19:22:51.583Z,2.15
2022-12-12T19:25:18.859Z,2.13
2022-12-12T19:27:45.628Z,2.11
2022-12-12T19:30:13.608Z,2.08
2022-12-12T19:32:41.782Z,2.05
2022-12-12T19:35:08.614Z,2.02
2022-12-12T19:37:38.260Z,1.97
2022-12-12T19:40:05.253Z,1.91
2022-12-12T19:42:31.734Z,1.86
2022-12-12T19:44:58.236Z,1.81
2022-12-12T19:47:25.443Z,1.78
2022-12-12T19:49:52.022Z,1.78
2022-12-12T19:52:19.689Z,1.80
2022-12-12T19:54:46.332Z,1.82
2022-12-12T19:57:12.856Z,1.86
2022-12-12T19:59:39.528Z,1.89
2022-12-12T20:02:07.118Z,1.94
2022-12-12T20:04:33.709Z,1.95
2022-12-12T20:07:00.284Z,1.95
2022-12-12T20:09:29.268Z,1.94
2022-12-12T20:11:57.913Z,1.93
2022-12-12T20:14:26.903Z,1.94
2022-12-12T20:16:54.464Z,1.95
2022-12-12T20:19:22.343Z,1.96
2022-12-12T20:22:05.609Z,1.95
2022-12-12T20:24:33.681Z,1.93
2022-12-12T20:27:02.952Z,1.91
2022-12-12T20:29:29.437Z,1.92
2022-12-12T20:31:56.016Z,1.94
2022-12-12T20:34:24.399Z,1.99
2022-12-12T20:36:51.846Z,2.00
2022-12-12T20:39:20.878Z,2.03
2022-12-12T20:41:48.540Z,2.04
2022-12-12T20:44:15.323Z,2.04
2022-12-12T20:46:44.482Z,2.02
2022-12-12T20:49:16.114Z,1.99
2022-12-12T20:51:55.179Z,1.92
2022-12-12T20:54:24.419Z,1.88
2022-12-12T20:56:52.233Z,1.86
2022-12-12T20:59:18.819Z,1.86
2022-12-12T21:01:47.117Z,1.85
2022-12-12T21:04:14.146Z,1.84
2022-12-12T21:06:47.781Z,1.83
2022-12-12T21:09:22.791Z,1.81
2022-12-12T21:11:52.074Z,1.81
2022-12-12T21:14:18.823Z,1.79
2022-12-12T21:16:45.344Z,1.76
2022-12-12T21:19:13.642Z,1.72
2022-12-12T21:21:42.076Z,1.67
2022-12-12T21:24:11.963Z,1.65
2022-12-12T21:26:38.911Z,1.62
2022-12-12T21:29:05.813Z,1.62
2022-12-12T21:31:36.813Z,1.63
2022-12-12T21:34:05.303Z,1.66
2022-12-12T21:36:32.585Z,1.68
2022-12-12T21:39:01.127Z,1.71
2022-12-12T21:41:28.367Z,1.69
2022-12-12T21:43:59.381Z,1.68
2022-12-12T21:46:27.545Z,1.66
2022-12-12T21:49:12.716Z,1.64
2022-12-12T21:51:40.777Z,1.66
2022-12-12T21:54:09.426Z,1.67
2022-12-12T21:56:36.044Z,1.70
2022-12-12T21:59:03.370Z,1.70
2022-12-12T22:01:31.889Z,1.72
2022-12-12T22:03:59.497Z,1.70
2022-12-12T22:06:28.615Z,1.67
2022-12-12T22:08:56.305Z,1.63
2022-12-12T22:11:40.485Z,1.58
2022-12-12T22:14:10.824Z,1.54
2022-12-12T22:16:37.739Z,1.50
2022-12-12T22:19:08.082Z,1.45
2022-12-12T22:21:35.487Z,1.38
2022-12-12T22:24:02.524Z,1.33
2022-12-12T22:26:39.316Z,1.26
2022-12-12T22:29:09.907Z,1.20
2022-12-12T22:31:38.130Z,1.14
2022-12-12T22:34:12.348Z,1.12
2022-12-12T22:36:39.759Z,1.11
2022-12-12T22:39:08.460Z,1.09
2022-12-12T22:41:35.077Z,1.08
2022-12-12T22:44:04.091Z,1.07
2022-12-12T22:46:31.387Z,1.06
2022-12-12T22:49:00.336Z,1.06
2022-12-12T22:51:29.726Z,1.06
2022-12-12T22:53:57.952Z,1.06
2022-12-12T22:56:24.556Z,1.05
2022-12-12T22:58:51.095Z,1.07
2022-12-12T23:01:21.205Z,1.10
2022-12-12T23:03:48.550Z,1.15
2022-12-12T23:06:18.548Z,1.17
2022-12-12T23:08:50.894Z,1.15
2022-12-12T23:11:18.688Z,1.13
2022-12-12T23:13:45.653Z,1.10
2022-12-12T23:16:16.257Z,1.07
2022-12-12T23:18:43.844Z,1.03
2022-12-12T23:21:16.756Z,1.01
2022-12-12T23:23:44.845Z,0.99
2022-12-12T23:26:16.773Z,0.95
2022-12-12T23:28:44.246Z,0.92
2022-12-12T23:31:20.079Z,0.88
2022-12-12T23:33:47.004Z,0.83
2022-12-12T23:36:15.195Z,0.77
2022-12-12T23:38:42.515Z,0.69
2022-12-12T23:41:12.442Z,0.61
2022-12-12T23:43:40.283Z,0.55
2022-12-12T23:46:27.945Z,0.50
2022-12-12T23:48:59.410Z,0.45
2022-12-12T23:51:27.864Z,0.42
2022-12-12T23:53:57.682Z,0.40
2022-12-12T23:56:24.803Z,0.37
2022-12-12T23:58:58.472Z,0.36
